sensor_id;sensor_type;location;lat;lon;timestamp;temperature;humidity
3198;DHT22;1611;49.394;11.136;2024-03-08T00:01:15;2.40;57.40
3198;DHT22;1611;49.394;11.136;2024-03-08T00:03:44;2.40;57.50
3198;DHT22;1611;49.394;11.136;2024-03-08T00:06:12;2.40;57.70
3198;DHT22;1611;49.394;11.136;2024-03-08T00:08:39;2.40;57.60
3198;DHT22;1611;49.394;11.136;2024-03-08T00:11:06;2.30;57.60
3198;DHT22;1611;49.394;11.136;2024-03-08T00:13:33;2.30;57.60
3198;DHT22;1611;49.394;11.136;2024-03-08T00:16:00;2.40;57.40
3198;DHT22;1611;49.394;11.136;2024-03-08T00:18:27;2.40;57.00
3198;DHT22;1611;49.394;11.136;2024-03-08T00:20:55;2.40;57.00
3198;DHT22;1611;49.394;11.136;2024-03-08T00:23:23;2.30;57.30
3198;DHT22;1611;49.394;11.136;2024-03-08T00:25:50;2.20;57.30
3198;DHT22;1611;49.394;11.136;2024-03-08T00:28:16;2.20;57.30
3198;DHT22;1611;49.394;11.136;2024-03-08T00:30:44;2.10;57.50
3198;DHT22;1611;49.394;11.136;2024-03-08T00:33:12;2.10;57.80
3198;DHT22;1611;49.394;11.136;2024-03-08T00:35:38;2.00;57.90
3198;DHT22;1611;49.394;11.136;2024-03-08T00:38:05;2.00;58.20
3198;DHT22;1611;49.394;11.136;2024-03-08T00:40:34;1.90;58.20
3198;DHT22;1611;49.394;11.136;2024-03-08T00:43:00;1.90;58.30
3198;DHT22;1611;49.394;11.136;2024-03-08T00:45:29;1.90;58.70
3198;DHT22;1611;49.394;11.136;2024-03-08T00:47:56;1.80;58.70
3198;DHT22;1611;49.394;11.136;2024-03-08T00:50:23;1.80;58.80
3198;DHT22;1611;49.394;11.136;2024-03-08T00:52:49;1.70;59.20
3198;DHT22;1611;49.394;11.136;2024-03-08T00:55:16;1.70;59.50
3198;DHT22;1611;49.394;11.136;2024-03-08T00:57:44;1.70;59.60
3198;DHT22;1611;49.394;11.136;2024-03-08T01:00:12;1.70;59.80
3198;DHT22;1611;49.394;11.136;2024-03-08T01:02:39;1.60;60.00
3198;DHT22;1611;49.394;11.136;2024-03-08T01:05:07;1.70;60.00
3198;DHT22;1611;49.394;11.136;2024-03-08T01:07:34;1.60;60.50
3198;DHT22;1611;49.394;11.136;2024-03-08T01:10:00;1.60;60.90
3198;DHT22;1611;49.394;11.136;2024-03-08T01:12:27;1.60;60.70
3198;DHT22;1611;49.394;11.136;2024-03-08T01:14:56;1.50;60.70
3198;DHT22;1611;49.394;11.136;2024-03-08T01:17:23;1.50;60.70
3198;DHT22;1611;49.394;11.136;2024-03-08T01:19:50;1.40;60.60
3198;DHT22;1611;49.394;11.136;2024-03-08T01:22:17;1.50;60.70
3198;DHT22;1611;49.394;11.136;2024-03-08T01:24:43;1.40;60.80
3198;DHT22;1611;49.394;11.136;2024-03-08T01:27:10;1.40;60.90
3198;DHT22;1611;49.394;11.136;2024-03-08T01:29:38;1.40;61.10
3198;DHT22;1611;49.394;11.136;2024-03-08T01:32:06;1.40;61.20
3198;DHT22;1611;49.394;11.136;2024-03-08T01:34:33;1.30;61.80
3198;DHT22;1611;49.394;11.136;2024-03-08T01:36:59;1.30;61.70
3198;DHT22;1611;49.394;11.136;2024-03-08T01:39:26;1.30;61.70
3198;DHT22;1611;49.394;11.136;2024-03-08T01:41:53;1.30;62.30
3198;DHT22;1611;49.394;11.136;2024-03-08T01:44:20;1.30;61.90
3198;DHT22;1611;49.394;11.136;2024-03-08T01:46:48;1.20;61.90
3198;DHT22;1611;49.394;11.136;2024-03-08T01:49:18;1.30;62.50
3198;DHT22;1611;49.394;11.136;2024-03-08T01:51:47;1.30;63.70
3198;DHT22;1611;49.394;11.136;2024-03-08T01:54:15;1.30;63.30
3198;DHT22;1611;49.394;11.136;2024-03-08T01:56:43;1.30;63.50
3198;DHT22;1611;49.394;11.136;2024-03-08T01:59:09;1.30;63.40
3198;DHT22;1611;49.394;11.136;2024-03-08T02:01:36;1.30;63.50
3198;DHT22;1611;49.394;11.136;2024-03-08T02:04:04;1.30;63.30
3198;DHT22;1611;49.394;11.136;2024-03-08T02:06:33;1.30;63.30
3198;DHT22;1611;49.394;11.136;2024-03-08T02:09:12;1.40;63.50
3198;DHT22;1611;49.394;11.136;2024-03-08T02:11:40;1.40;63.90
3198;DHT22;1611;49.394;11.136;2024-03-08T02:14:07;1.40;64.10
3198;DHT22;1611;49.394;11.136;2024-03-08T02:16:35;1.40;67.80
3198;DHT22;1611;49.394;11.136;2024-03-08T02:19:01;1.40;69.70
3198;DHT22;1611;49.394;11.136;2024-03-08T02:21:30;1.40;69.80
3198;DHT22;1611;49.394;11.136;2024-03-08T02:23:57;1.50;68.00
3198;DHT22;1611;49.394;11.136;2024-03-08T02:26:23;1.50;67.30
3198;DHT22;1611;49.394;11.136;2024-03-08T02:28:50;1.50;66.40
3198;DHT22;1611;49.394;11.136;2024-03-08T02:31:17;1.50;66.30
3198;DHT22;1611;49.394;11.136;2024-03-08T02:33:43;1.60;65.70
3198;DHT22;1611;49.394;11.136;2024-03-08T02:36:12;1.60;65.00
3198;DHT22;1611;49.394;11.136;2024-03-08T02:38:40;1.60;64.90
3198;DHT22;1611;49.394;11.136;2024-03-08T02:41:08;1.60;64.20
3198;DHT22;1611;49.394;11.136;2024-03-08T02:43:35;1.50;63.30
3198;DHT22;1611;49.394;11.136;2024-03-08T02:46:02;1.50;63.20
3198;DHT22;1611;49.394;11.136;2024-03-08T02:48:30;1.40;61.60
3198;DHT22;1611;49.394;11.136;2024-03-08T02:50:57;1.40;62.00
3198;DHT22;1611;49.394;11.136;2024-03-08T02:53:24;1.40;61.50
3198;DHT22;1611;49.394;11.136;2024-03-08T02:55:52;1.30;61.60
3198;DHT22;1611;49.394;11.136;2024-03-08T02:58:19;1.20;61.80
3198;DHT22;1611;49.394;11.136;2024-03-08T03:00:45;1.20;62.00
3198;DHT22;1611;49.394;11.136;2024-03-08T03:03:12;1.20;62.20
3198;DHT22;1611;49.394;11.136;2024-03-08T03:05:39;1.20;62.20
3198;DHT22;1611;49.394;11.136;2024-03-08T03:08:06;1.20;62.30
3198;DHT22;1611;49.394;11.136;2024-03-08T03:10:34;1.10;62.40
3198;DHT22;1611;49.394;11.136;2024-03-08T03:13:03;1.10;62.50
3198;DHT22;1611;49.394;11.136;2024-03-08T03:15:30;1.00;64.60
3198;DHT22;1611;49.394;11.136;2024-03-08T03:17:56;1.00;62.40
3198;DHT22;1611;49.394;11.136;2024-03-08T03:20:23;0.90;64.70
3198;DHT22;1611;49.394;11.136;2024-03-08T03:22:57;1.00;63.50
3198;DHT22;1611;49.394;11.136;2024-03-08T03:25:26;0.90;63.40
3198;DHT22;1611;49.394;11.136;2024-03-08T03:27:58;1.00;63.80
3198;DHT22;1611;49.394;11.136;2024-03-08T03:30:26;1.00;67.70
3198;DHT22;1611;49.394;11.136;2024-03-08T03:32:58;1.00;65.60
3198;DHT22;1611;49.394;11.136;2024-03-08T03:35:26;1.00;67.90
3198;DHT22;1611;49.394;11.136;2024-03-08T03:37:53;1.10;66.40
3198;DHT22;1611;49.394;11.136;2024-03-08T03:40:28;1.10;68.00
3198;DHT22;1611;49.394;11.136;2024-03-08T03:42:55;1.00;68.20
3198;DHT22;1611;49.394;11.136;2024-03-08T03:45:22;1.10;65.30
3198;DHT22;1611;49.394;11.136;2024-03-08T03:47:50;1.10;69.20
3198;DHT22;1611;49.394;11.136;2024-03-08T03:50:17;1.20;69.20
3198;DHT22;1611;49.394;11.136;2024-03-08T03:52:44;1.20;69.70
3198;DHT22;1611;49.394;11.136;2024-03-08T03:55:12;1.20;65.20
3198;DHT22;1611;49.394;11.136;2024-03-08T03:57:38;1.20;70.50
3198;DHT22;1611;49.394;11.136;2024-03-08T04:00:07;1.20;64.10
3198;DHT22;1611;49.394;11.136;2024-03-08T04:02:36;1.20;63.90
3198;DHT22;1611;49.394;11.136;2024-03-08T04:05:06;1.30;63.70
3198;DHT22;1611;49.394;11.136;2024-03-08T04:07:33;1.20;64.10
3198;DHT22;1611;49.394;11.136;2024-03-08T04:10:00;1.20;71.20
3198;DHT22;1611;49.394;11.136;2024-03-08T04:12:26;1.20;71.70
3198;DHT22;1611;49.394;11.136;2024-03-08T04:14:54;1.30;72.40
3198;DHT22;1611;49.394;11.136;2024-03-08T04:17:21;1.40;72.60
3198;DHT22;1611;49.394;11.136;2024-03-08T04:19:49;1.30;73.00
3198;DHT22;1611;49.394;11.136;2024-03-08T04:22:17;1.40;73.20
3198;DHT22;1611;49.394;11.136;2024-03-08T04:24:44;1.30;72.90
3198;DHT22;1611;49.394;11.136;2024-03-08T04:27:11;1.30;72.70
3198;DHT22;1611;49.394;11.136;2024-03-08T04:29:38;1.30;72.60
3198;DHT22;1611;49.394;11.136;2024-03-08T04:32:05;1.30;73.00
3198;DHT22;1611;49.394;11.136;2024-03-08T04:34:34;1.30;73.20
3198;DHT22;1611;49.394;11.136;2024-03-08T04:37:01;1.30;73.30
3198;DHT22;1611;49.394;11.136;2024-03-08T04:39:29;1.30;73.50
3198;DHT22;1611;49.394;11.136;2024-03-08T04:41:58;1.30;73.00
3198;DHT22;1611;49.394;11.136;2024-03-08T04:44:26;1.30;73.20
3198;DHT22;1611;49.394;11.136;2024-03-08T04:46:52;1.30;73.30
3198;DHT22;1611;49.394;11.136;2024-03-08T04:49:19;1.40;73.40
3198;DHT22;1611;49.394;11.136;2024-03-08T04:51:47;1.30;73.70
3198;DHT22;1611;49.394;11.136;2024-03-08T04:54:14;1.20;73.90
3198;DHT22;1611;49.394;11.136;2024-03-08T04:56:42;1.30;73.60
3198;DHT22;1611;49.394;11.136;2024-03-08T04:59:08;1.30;73.50
3198;DHT22;1611;49.394;11.136;2024-03-08T05:01:35;1.30;73.00
3198;DHT22;1611;49.394;11.136;2024-03-08T05:04:03;1.20;63.30
3198;DHT22;1611;49.394;11.136;2024-03-08T05:06:31;1.20;63.40
3198;DHT22;1611;49.394;11.136;2024-03-08T05:08:58;1.20;63.50
3198;DHT22;1611;49.394;11.136;2024-03-08T05:11:25;1.20;64.30
3198;DHT22;1611;49.394;11.136;2024-03-08T05:13:53;1.20;63.20
3198;DHT22;1611;49.394;11.136;2024-03-08T05:16:21;1.10;63.20
3198;DHT22;1611;49.394;11.136;2024-03-08T05:18:49;1.10;63.10
3198;DHT22;1611;49.394;11.136;2024-03-08T05:21:16;1.10;63.00
3198;DHT22;1611;49.394;11.136;2024-03-08T05:23:45;1.10;63.20
3198;DHT22;1611;49.394;11.136;2024-03-08T05:26:12;1.00;63.60
3198;DHT22;1611;49.394;11.136;2024-03-08T05:28:39;1.10;63.50
3198;DHT22;1611;49.394;11.136;2024-03-08T05:31:07;1.10;63.20
3198;DHT22;1611;49.394;11.136;2024-03-08T05:33:34;1.10;63.20
3198;DHT22;1611;49.394;11.136;2024-03-08T05:36:01;1.00;66.00
3198;DHT22;1611;49.394;11.136;2024-03-08T05:38:28;1.00;73.80
3198;DHT22;1611;49.394;11.136;2024-03-08T05:40:55;1.10;75.10
3198;DHT22;1611;49.394;11.136;2024-03-08T05:43:21;1.10;75.10
3198;DHT22;1611;49.394;11.136;2024-03-08T05:45:48;1.10;74.90
3198;DHT22;1611;49.394;11.136;2024-03-08T05:48:16;1.00;75.10
3198;DHT22;1611;49.394;11.136;2024-03-08T05:50:44;1.10;75.70
3198;DHT22;1611;49.394;11.136;2024-03-08T05:53:11;1.10;75.50
3198;DHT22;1611;49.394;11.136;2024-03-08T05:55:38;1.10;65.50
3198;DHT22;1611;49.394;11.136;2024-03-08T05:58:06;1.20;65.30
3198;DHT22;1611;49.394;11.136;2024-03-08T06:00:33;1.20;64.70
3198;DHT22;1611;49.394;11.136;2024-03-08T06:03:01;1.30;65.40
3198;DHT22;1611;49.394;11.136;2024-03-08T06:05:29;1.30;63.90
3198;DHT22;1611;49.394;11.136;2024-03-08T06:07:56;1.20;63.40
3198;DHT22;1611;49.394;11.136;2024-03-08T06:10:23;1.20;63.40
3198;DHT22;1611;49.394;11.136;2024-03-08T06:12:50;1.20;63.70
3198;DHT22;1611;49.394;11.136;2024-03-08T06:15:17;1.20;63.70
3198;DHT22;1611;49.394;11.136;2024-03-08T06:17:46;1.20;64.10
3198;DHT22;1611;49.394;11.136;2024-03-08T06:20:13;1.30;64.10
3198;DHT22;1611;49.394;11.136;2024-03-08T06:22:41;1.30;63.70
3198;DHT22;1611;49.394;11.136;2024-03-08T06:25:08;1.40;63.90
3198;DHT22;1611;49.394;11.136;2024-03-08T06:27:35;1.40;63.50
3198;DHT22;1611;49.394;11.136;2024-03-08T06:30:03;1.50;63.80
3198;DHT22;1611;49.394;11.136;2024-03-08T06:32:30;1.50;63.50
3198;DHT22;1611;49.394;11.136;2024-03-08T06:35:01;1.60;63.70
3198;DHT22;1611;49.394;11.136;2024-03-08T06:37:27;1.60;63.70
3198;DHT22;1611;49.394;11.136;2024-03-08T06:39:55;1.60;71.70
3198;DHT22;1611;49.394;11.136;2024-03-08T06:42:22;1.70;73.80
3198;DHT22;1611;49.394;11.136;2024-03-08T06:44:49;1.80;74.10
3198;DHT22;1611;49.394;11.136;2024-03-08T06:47:16;1.80;74.90
3198;DHT22;1611;49.394;11.136;2024-03-08T06:49:43;1.90;74.50
3198;DHT22;1611;49.394;11.136;2024-03-08T06:52:09;1.90;72.80
3198;DHT22;1611;49.394;11.136;2024-03-08T06:54:36;2.10;73.80
3198;DHT22;1611;49.394;11.136;2024-03-08T06:57:05;2.00;74.50
3198;DHT22;1611;49.394;11.136;2024-03-08T06:59:32;2.10;74.60
3198;DHT22;1611;49.394;11.136;2024-03-08T07:02:01;2.10;74.10
3198;DHT22;1611;49.394;11.136;2024-03-08T07:04:27;2.20;73.80
3198;DHT22;1611;49.394;11.136;2024-03-08T07:06:55;2.30;73.80
3198;DHT22;1611;49.394;11.136;2024-03-08T07:09:22;2.30;73.90
3198;DHT22;1611;49.394;11.136;2024-03-08T07:11:49;2.40;74.00
3198;DHT22;1611;49.394;11.136;2024-03-08T07:14:21;2.40;73.50
3198;DHT22;1611;49.394;11.136;2024-03-08T07:16:48;2.50;73.80
3198;DHT22;1611;49.394;11.136;2024-03-08T07:19:15;2.60;71.60
3198;DHT22;1611;49.394;11.136;2024-03-08T07:21:42;2.60;60.90
3198;DHT22;1611;49.394;11.136;2024-03-08T07:24:09;2.70;61.40
3198;DHT22;1611;49.394;11.136;2024-03-08T07:26:53;2.90;59.90
3198;DHT22;1611;49.394;11.136;2024-03-08T07:29:22;2.90;60.00
3198;DHT22;1611;49.394;11.136;2024-03-08T07:31:49;3.10;59.50
3198;DHT22;1611;49.394;11.136;2024-03-08T07:34:21;3.20;59.10
3198;DHT22;1611;49.394;11.136;2024-03-08T07:36:48;3.40;58.80
3198;DHT22;1611;49.394;11.136;2024-03-08T07:39:16;3.50;57.80
3198;DHT22;1611;49.394;11.136;2024-03-08T07:41:43;3.70;64.60
3198;DHT22;1611;49.394;11.136;2024-03-08T07:44:09;4.10;63.60
3198;DHT22;1611;49.394;11.136;2024-03-08T07:46:37;4.10;56.10
3198;DHT22;1611;49.394;11.136;2024-03-08T07:49:04;4.20;54.70
3198;DHT22;1611;49.394;11.136;2024-03-08T07:51:31;4.30;54.20
3198;DHT22;1611;49.394;11.136;2024-03-08T07:54:00;4.40;53.90
3198;DHT22;1611;49.394;11.136;2024-03-08T07:56:26;4.50;53.30
3198;DHT22;1611;49.394;11.136;2024-03-08T07:58:53;4.50;51.90
3198;DHT22;1611;49.394;11.136;2024-03-08T08:01:20;4.50;51.80
3198;DHT22;1611;49.394;11.136;2024-03-08T08:03:48;4.60;51.50
3198;DHT22;1611;49.394;11.136;2024-03-08T08:06:15;4.60;51.50
3198;DHT22;1611;49.394;11.136;2024-03-08T08:08:42;4.60;51.00
3198;DHT22;1611;49.394;11.136;2024-03-08T08:11:08;4.70;50.90
3198;DHT22;1611;49.394;11.136;2024-03-08T08:13:36;4.70;50.50
3198;DHT22;1611;49.394;11.136;2024-03-08T08:16:04;4.90;50.30
3198;DHT22;1611;49.394;11.136;2024-03-08T08:18:32;4.90;49.30
3198;DHT22;1611;49.394;11.136;2024-03-08T08:21:01;5.10;49.10
3198;DHT22;1611;49.394;11.136;2024-03-08T08:23:28;5.10;49.30
3198;DHT22;1611;49.394;11.136;2024-03-08T08:25:55;5.20;48.80
3198;DHT22;1611;49.394;11.136;2024-03-08T08:28:22;5.30;48.20
3198;DHT22;1611;49.394;11.136;2024-03-08T08:30:50;5.40;48.10
3198;DHT22;1611;49.394;11.136;2024-03-08T08:33:17;5.60;46.80
3198;DHT22;1611;49.394;11.136;2024-03-08T08:35:45;5.70;47.10
3198;DHT22;1611;49.394;11.136;2024-03-08T08:38:14;5.80;45.60
3198;DHT22;1611;49.394;11.136;2024-03-08T08:40:41;5.90;45.20
3198;DHT22;1611;49.394;11.136;2024-03-08T08:43:08;5.90;44.00
3198;DHT22;1611;49.394;11.136;2024-03-08T08:45:34;5.90;44.80
3198;DHT22;1611;49.394;11.136;2024-03-08T08:48:01;6.00;43.60
3198;DHT22;1611;49.394;11.136;2024-03-08T08:50:28;6.10;43.20
3198;DHT22;1611;49.394;11.136;2024-03-08T08:52:56;6.20;42.90
3198;DHT22;1611;49.394;11.136;2024-03-08T08:55:25;6.20;43.80
3198;DHT22;1611;49.394;11.136;2024-03-08T08:57:52;6.30;42.10
3198;DHT22;1611;49.394;11.136;2024-03-08T09:00:19;6.40;41.20
3198;DHT22;1611;49.394;11.136;2024-03-08T09:02:47;6.50;40.90
3198;DHT22;1611;49.394;11.136;2024-03-08T09:05:14;6.50;41.40
3198;DHT22;1611;49.394;11.136;2024-03-08T09:07:42;6.60;40.20
3198;DHT22;1611;49.394;11.136;2024-03-08T09:10:10;6.80;39.60
3198;DHT22;1611;49.394;11.136;2024-03-08T09:12:39;6.90;39.60
3198;DHT22;1611;49.394;11.136;2024-03-08T09:15:06;7.00;39.70
3198;DHT22;1611;49.394;11.136;2024-03-08T09:17:33;6.90;37.20
3198;DHT22;1611;49.394;11.136;2024-03-08T09:20:00;7.00;38.30
3198;DHT22;1611;49.394;11.136;2024-03-08T09:22:28;7.20;38.50
3198;DHT22;1611;49.394;11.136;2024-03-08T09:24:55;7.30;37.90
3198;DHT22;1611;49.394;11.136;2024-03-08T09:27:22;7.40;38.00
3198;DHT22;1611;49.394;11.136;2024-03-08T09:29:50;7.40;37.10
3198;DHT22;1611;49.394;11.136;2024-03-08T09:32:17;7.30;37.90
3198;DHT22;1611;49.394;11.136;2024-03-08T09:34:44;7.40;38.20
3198;DHT22;1611;49.394;11.136;2024-03-08T09:37:11;7.60;37.40
3198;DHT22;1611;49.394;11.136;2024-03-08T09:39:38;7.60;37.70
3198;DHT22;1611;49.394;11.136;2024-03-08T09:42:05;7.80;36.90
3198;DHT22;1611;49.394;11.136;2024-03-08T09:44:32;7.90;37.30
3198;DHT22;1611;49.394;11.136;2024-03-08T09:47:02;8.10;35.90
3198;DHT22;1611;49.394;11.136;2024-03-08T09:49:29;8.20;35.60
3198;DHT22;1611;49.394;11.136;2024-03-08T09:51:55;8.60;35.00
3198;DHT22;1611;49.394;11.136;2024-03-08T09:54:23;8.70;34.00
3198;DHT22;1611;49.394;11.136;2024-03-08T09:56:51;8.70;34.30
3198;DHT22;1611;49.394;11.136;2024-03-08T09:59:18;8.70;33.10
3198;DHT22;1611;49.394;11.136;2024-03-08T10:02:24;8.70;33.60
3198;DHT22;1611;49.394;11.136;2024-03-08T10:04:51;8.90;33.10
3198;DHT22;1611;49.394;11.136;2024-03-08T10:07:18;9.00;33.10
3198;DHT22;1611;49.394;11.136;2024-03-08T10:09:45;9.30;32.30
3198;DHT22;1611;49.394;11.136;2024-03-08T10:12:16;9.60;30.00
3198;DHT22;1611;49.394;11.136;2024-03-08T10:14:45;10.00;29.60
3198;DHT22;1611;49.394;11.136;2024-03-08T10:17:12;10.60;28.30
3198;DHT22;1611;49.394;11.136;2024-03-08T10:19:49;11.30;26.40
3198;DHT22;1611;49.394;11.136;2024-03-08T10:22:16;12.50;23.00
3198;DHT22;1611;49.394;11.136;2024-03-08T10:24:45;13.50;20.00
3198;DHT22;1611;49.394;11.136;2024-03-08T10:27:11;14.10;18.50
3198;DHT22;1611;49.394;11.136;2024-03-08T10:29:39;14.60;17.20
3198;DHT22;1611;49.394;11.136;2024-03-08T10:32:09;15.20;15.90
3198;DHT22;1611;49.394;11.136;2024-03-08T10:34:36;15.50;15.30
3198;DHT22;1611;49.394;11.136;2024-03-08T10:37:05;16.00;14.50
3198;DHT22;1611;49.394;11.136;2024-03-08T10:39:37;16.30;14.30
3198;DHT22;1611;49.394;11.136;2024-03-08T10:42:05;16.70;14.20
3198;DHT22;1611;49.394;11.136;2024-03-08T10:44:46;16.90;13.60
3198;DHT22;1611;49.394;11.136;2024-03-08T10:47:18;16.90;12.30
3198;DHT22;1611;49.394;11.136;2024-03-08T10:49:51;16.10;13.40
3198;DHT22;1611;49.394;11.136;2024-03-08T10:52:22;15.60;14.90
3198;DHT22;1611;49.394;11.136;2024-03-08T10:54:48;15.80;14.90
3198;DHT22;1611;49.394;11.136;2024-03-08T10:57:18;16.00;14.80
3198;DHT22;1611;49.394;11.136;2024-03-08T10:59:47;15.90;14.50
3198;DHT22;1611;49.394;11.136;2024-03-08T11:02:15;16.20;13.80
3198;DHT22;1611;49.394;11.136;2024-03-08T11:04:46;16.40;13.70
3198;DHT22;1611;49.394;11.136;2024-03-08T11:07:14;16.60;12.90
3198;DHT22;1611;49.394;11.136;2024-03-08T11:09:47;17.60;12.80
3198;DHT22;1611;49.394;11.136;2024-03-08T11:12:22;19.30;10.40
3198;DHT22;1611;49.394;11.136;2024-03-08T11:14:51;20.50;8.70
3198;DHT22;1611;49.394;11.136;2024-03-08T11:17:21;21.30;6.90
3198;DHT22;1611;49.394;11.136;2024-03-08T11:19:48;20.50;6.80
3198;DHT22;1611;49.394;11.136;2024-03-08T11:22:22;20.40;6.50
3198;DHT22;1611;49.394;11.136;2024-03-08T11:24:51;19.70;7.00
3198;DHT22;1611;49.394;11.136;2024-03-08T11:27:18;18.40;9.40
3198;DHT22;1611;49.394;11.136;2024-03-08T11:29:59;18.00;10.20
3198;DHT22;1611;49.394;11.136;2024-03-08T11:32:35;17.70;9.40
3198;DHT22;1611;49.394;11.136;2024-03-08T11:35:03;17.60;10.70
3198;DHT22;1611;49.394;11.136;2024-03-08T11:37:34;18.40;10.10
3198;DHT22;1611;49.394;11.136;2024-03-08T11:40:11;19.70;9.00
3198;DHT22;1611;49.394;11.136;2024-03-08T11:42:44;19.70;6.60
3198;DHT22;1611;49.394;11.136;2024-03-08T11:45:12;20.30;6.50
3198;DHT22;1611;49.394;11.136;2024-03-08T11:47:41;19.80;6.70
3198;DHT22;1611;49.394;11.136;2024-03-08T11:50:10;19.70;6.70
3198;DHT22;1611;49.394;11.136;2024-03-08T11:52:38;20.20;7.50
3198;DHT22;1611;49.394;11.136;2024-03-08T11:55:07;20.20;7.10
3198;DHT22;1611;49.394;11.136;2024-03-08T11:57:34;21.70;6.10
3198;DHT22;1611;49.394;11.136;2024-03-08T12:00:01;22.90;5.80
3198;DHT22;1611;49.394;11.136;2024-03-08T12:02:32;23.80;4.20
3198;DHT22;1611;49.394;11.136;2024-03-08T12:05:01;24.50;3.20
3198;DHT22;1611;49.394;11.136;2024-03-08T12:07:29;25.60;2.00
3198;DHT22;1611;49.394;11.136;2024-03-08T12:10:19;26.40;1.50
3198;DHT22;1611;49.394;11.136;2024-03-08T12:12:48;26.50;1.00
3198;DHT22;1611;49.394;11.136;2024-03-08T12:15:16;26.30;1.00
3198;DHT22;1611;49.394;11.136;2024-03-08T12:17:43;26.60;1.00
3198;DHT22;1611;49.394;11.136;2024-03-08T12:20:15;26.20;1.00
3198;DHT22;1611;49.394;11.136;2024-03-08T12:22:42;26.60;1.00
3198;DHT22;1611;49.394;11.136;2024-03-08T12:25:11;26.70;1.00
3198;DHT22;1611;49.394;11.136;2024-03-08T12:27:40;26.30;1.00
3198;DHT22;1611;49.394;11.136;2024-03-08T12:30:20;25.50;1.00
3198;DHT22;1611;49.394;11.136;2024-03-08T12:32:50;25.20;1.00
3198;DHT22;1611;49.394;11.136;2024-03-08T12:35:18;24.00;1.50
3198;DHT22;1611;49.394;11.136;2024-03-08T12:37:48;22.90;2.50
3198;DHT22;1611;49.394;11.136;2024-03-08T12:40:17;22.50;3.30
3198;DHT22;1611;49.394;11.136;2024-03-08T12:42:46;22.00;3.60
3198;DHT22;1611;49.394;11.136;2024-03-08T12:45:14;21.60;4.50
3198;DHT22;1611;49.394;11.136;2024-03-08T12:47:41;21.10;5.20
3198;DHT22;1611;49.394;11.136;2024-03-08T12:50:09;20.20;6.40
3198;DHT22;1611;49.394;11.136;2024-03-08T12:52:36;19.80;6.50
3198;DHT22;1611;49.394;11.136;2024-03-08T12:55:03;19.80;7.40
3198;DHT22;1611;49.394;11.136;2024-03-08T12:57:32;19.70;6.80
3198;DHT22;1611;49.394;11.136;2024-03-08T13:00:01;19.40;6.20
3198;DHT22;1611;49.394;11.136;2024-03-08T13:02:29;18.80;7.10
3198;DHT22;1611;49.394;11.136;2024-03-08T13:04:57;18.50;8.40
3198;DHT22;1611;49.394;11.136;2024-03-08T13:07:25;18.90;8.00
3198;DHT22;1611;49.394;11.136;2024-03-08T13:09:52;19.20;7.80
3198;DHT22;1611;49.394;11.136;2024-03-08T13:12:19;19.30;7.20
3198;DHT22;1611;49.394;11.136;2024-03-08T13:14:46;19.70;7.10
3198;DHT22;1611;49.394;11.136;2024-03-08T13:17:14;19.90;6.30
3198;DHT22;1611;49.394;11.136;2024-03-08T13:19:42;20.20;6.40
3198;DHT22;1611;49.394;11.136;2024-03-08T13:22:09;21.80;4.90
3198;DHT22;1611;49.394;11.136;2024-03-08T13:24:38;22.50;3.70
3198;DHT22;1611;49.394;11.136;2024-03-08T13:27:07;22.90;2.60
3198;DHT22;1611;49.394;11.136;2024-03-08T13:29:45;23.60;3.10
3198;DHT22;1611;49.394;11.136;2024-03-08T13:32:14;24.50;2.30
3198;DHT22;1611;49.394;11.136;2024-03-08T13:34:41;23.70;2.40
3198;DHT22;1611;49.394;11.136;2024-03-08T13:37:08;22.40;3.50
3198;DHT22;1611;49.394;11.136;2024-03-08T13:39:35;20.90;5.10
3198;DHT22;1611;49.394;11.136;2024-03-08T13:42:08;19.10;6.50
3198;DHT22;1611;49.394;11.136;2024-03-08T13:44:35;18.20;8.70
3198;DHT22;1611;49.394;11.136;2024-03-08T13:47:03;17.90;9.00
3198;DHT22;1611;49.394;11.136;2024-03-08T13:49:32;17.60;9.80
3198;DHT22;1611;49.394;11.136;2024-03-08T13:51:58;17.20;10.30
3198;DHT22;1611;49.394;11.136;2024-03-08T13:54:25;16.50;11.30
3198;DHT22;1611;49.394;11.136;2024-03-08T13:56:53;15.90;12.40
3198;DHT22;1611;49.394;11.136;2024-03-08T13:59:20;15.70;12.90
3198;DHT22;1611;49.394;11.136;2024-03-08T14:01:48;15.50;13.70
3198;DHT22;1611;49.394;11.136;2024-03-08T14:04:15;15.30;12.50
3198;DHT22;1611;49.394;11.136;2024-03-08T14:06:44;15.00;13.70
3198;DHT22;1611;49.394;11.136;2024-03-08T14:09:11;14.80;14.20
3198;DHT22;1611;49.394;11.136;2024-03-08T14:11:42;14.50;15.40
3198;DHT22;1611;49.394;11.136;2024-03-08T14:14:09;14.50;15.50
3198;DHT22;1611;49.394;11.136;2024-03-08T14:16:38;14.50;15.60
3198;DHT22;1611;49.394;11.136;2024-03-08T14:19:04;14.30;16.30
3198;DHT22;1611;49.394;11.136;2024-03-08T14:21:32;14.10;17.10
3198;DHT22;1611;49.394;11.136;2024-03-08T14:24:00;14.20;16.70
3198;DHT22;1611;49.394;11.136;2024-03-08T14:26:27;14.10;16.90
3198;DHT22;1611;49.394;11.136;2024-03-08T14:28:54;13.90;16.60
3198;DHT22;1611;49.394;11.136;2024-03-08T14:31:20;14.00;17.00
3198;DHT22;1611;49.394;11.136;2024-03-08T14:33:51;14.10;16.40
3198;DHT22;1611;49.394;11.136;2024-03-08T14:36:18;14.10;16.10
3198;DHT22;1611;49.394;11.136;2024-03-08T14:38:45;14.10;16.80
3198;DHT22;1611;49.394;11.136;2024-03-08T14:41:14;14.20;16.40
3198;DHT22;1611;49.394;11.136;2024-03-08T14:43:42;14.00;16.60
3198;DHT22;1611;49.394;11.136;2024-03-08T14:46:10;13.70;16.60
3198;DHT22;1611;49.394;11.136;2024-03-08T14:48:39;13.70;17.00
3198;DHT22;1611;49.394;11.136;2024-03-08T14:51:07;13.70;16.50
3198;DHT22;1611;49.394;11.136;2024-03-08T14:53:36;14.00;15.70
3198;DHT22;1611;49.394;11.136;2024-03-08T14:56:06;14.30;15.80
3198;DHT22;1611;49.394;11.136;2024-03-08T14:58:34;14.90;14.70
3198;DHT22;1611;49.394;11.136;2024-03-08T15:01:04;15.50;13.80
3198;DHT22;1611;49.394;11.136;2024-03-08T15:03:35;15.50;13.30
3198;DHT22;1611;49.394;11.136;2024-03-08T15:06:02;14.90;15.10
3198;DHT22;1611;49.394;11.136;2024-03-08T15:08:34;14.40;16.00
3198;DHT22;1611;49.394;11.136;2024-03-08T15:11:00;14.00;16.60
3198;DHT22;1611;49.394;11.136;2024-03-08T15:13:27;13.70;17.00
3198;DHT22;1611;49.394;11.136;2024-03-08T15:16:05;13.50;18.10
3198;DHT22;1611;49.394;11.136;2024-03-08T15:18:33;13.80;17.90
3198;DHT22;1611;49.394;11.136;2024-03-08T15:21:02;14.40;17.20
3198;DHT22;1611;49.394;11.136;2024-03-08T15:23:32;14.20;17.30
3198;DHT22;1611;49.394;11.136;2024-03-08T15:25:59;14.00;17.30
3198;DHT22;1611;49.394;11.136;2024-03-08T15:28:27;13.90;17.30
3198;DHT22;1611;49.394;11.136;2024-03-08T15:31:02;14.20;18.20
3198;DHT22;1611;49.394;11.136;2024-03-08T15:33:33;14.80;17.60
3198;DHT22;1611;49.394;11.136;2024-03-08T15:36:00;15.40;17.00
3198;DHT22;1611;49.394;11.136;2024-03-08T15:38:33;15.90;15.70
3198;DHT22;1611;49.394;11.136;2024-03-08T15:41:00;16.00;15.60
3198;DHT22;1611;49.394;11.136;2024-03-08T15:43:27;16.30;15.00
3198;DHT22;1611;49.394;11.136;2024-03-08T15:45:54;16.30;15.10
3198;DHT22;1611;49.394;11.136;2024-03-08T15:48:23;16.30;14.90
3198;DHT22;1611;49.394;11.136;2024-03-08T15:50:52;16.10;15.20
3198;DHT22;1611;49.394;11.136;2024-03-08T15:53:18;15.60;16.00
3198;DHT22;1611;49.394;11.136;2024-03-08T15:55:45;15.30;16.50
3198;DHT22;1611;49.394;11.136;2024-03-08T15:58:12;15.10;16.90
3198;DHT22;1611;49.394;11.136;2024-03-08T16:00:39;14.80;17.00
3198;DHT22;1611;49.394;11.136;2024-03-08T16:03:12;13.90;18.70